KAC738 OTHH-OMDB
Flight info
| Callsign | KAC738 |
|---|---|
| Flight time | 0h 45m |
| Altitude | 21000 |
| Route | ALSEM L305 ITBUL M677 VUTEB |
| Aircraft | B738/M-SDE2E3FGHIRWXY/LB1 |
Departure
| Time | 2026-05-06 00:14 |
|---|---|
| Airport | Hamad International Airport (OTHH) |
Arrival
| Time | 2026-05-06 01:00 |
|---|---|
| Airport | Dubai International Airport (OMDB) |
| Time | Latitude | Longitude | Altitude | Speed | Heading |
|---|---|---|---|---|---|
| 2026-05-05 23:22 | 25.26673 | 51.60892 | 29 ft | 0 kts | 23° |
| 2026-05-05 23:52 | 25.26672 | 51.60892 | 29 ft | 1 kts | 23° |
| 2026-05-05 23:52 | 25.26650 | 51.60881 | 29 ft | 4 kts | 19° |
| 2026-05-05 23:53 | 25.26624 | 51.60874 | 29 ft | 4 kts | 1° |
| 2026-05-05 23:53 | 25.26599 | 51.60878 | 29 ft | 4 kts | 321° |
| 2026-05-05 23:53 | 25.26591 | 51.60889 | 29 ft | 0 kts | 293° |
| 2026-05-05 23:56 | 25.26592 | 51.60886 | 29 ft | 2 kts | 293° |
| 2026-05-05 23:56 | 25.26605 | 51.60852 | 29 ft | 8 kts | 293° |
| 2026-05-05 23:56 | 25.26623 | 51.60806 | 29 ft | 12 kts | 293° |
| 2026-05-05 23:56 | 25.26664 | 51.60701 | 29 ft | 18 kts | 293° |
| 2026-05-05 23:57 | 25.26659 | 51.60528 | 29 ft | 20 kts | 248° |
| 2026-05-05 23:57 | 25.26624 | 51.60424 | 29 ft | 23 kts | 262° |
| 2026-05-05 23:57 | 25.26734 | 51.60325 | 28 ft | 22 kts | 338° |
| 2026-05-05 23:57 | 25.26876 | 51.60262 | 28 ft | 22 kts | 338° |
| 2026-05-05 23:58 | 25.26994 | 51.60300 | 29 ft | 21 kts | 68° |
| 2026-05-05 23:58 | 25.27045 | 51.60444 | 29 ft | 15 kts | 68° |
| 2026-05-05 23:58 | 25.27084 | 51.60551 | 29 ft | 15 kts | 68° |
| 2026-05-05 23:58 | 25.27121 | 51.60652 | 29 ft | 14 kts | 66° |
| 2026-05-05 23:59 | 25.27158 | 51.60750 | 29 ft | 13 kts | 68° |
| 2026-05-05 23:59 | 25.27191 | 51.60844 | 29 ft | 13 kts | 72° |
| 2026-05-05 23:59 | 25.27225 | 51.60934 | 29 ft | 13 kts | 68° |
| 2026-05-05 23:59 | 25.27257 | 51.61023 | 29 ft | 12 kts | 68° |
| 2026-05-06 00:00 | 25.27288 | 51.61110 | 29 ft | 12 kts | 69° |
| 2026-05-06 00:00 | 25.27318 | 51.61195 | 29 ft | 12 kts | 69° |
| 2026-05-06 00:00 | 25.27350 | 51.61276 | 29 ft | 11 kts | 70° |
| 2026-05-06 00:00 | 25.27378 | 51.61356 | 29 ft | 11 kts | 68° |
| 2026-05-06 00:01 | 25.27406 | 51.61432 | 29 ft | 11 kts | 68° |
| 2026-05-06 00:01 | 25.27439 | 51.61504 | 28 ft | 10 kts | 40° |
| 2026-05-06 00:01 | 25.27507 | 51.61508 | 28 ft | 10 kts | 358° |
| 2026-05-06 00:01 | 25.27544 | 51.61507 | 28 ft | 4 kts | 308° |
| 2026-05-06 00:02 | 25.27591 | 51.61468 | 28 ft | 14 kts | 334° |
| 2026-05-06 00:02 | 25.27713 | 51.61414 | 28 ft | 22 kts | 338° |
| 2026-05-06 00:02 | 25.27856 | 51.61366 | 28 ft | 21 kts | 15° |
| 2026-05-06 00:02 | 25.27963 | 51.61415 | 27 ft | 17 kts | 320° |
| 2026-05-06 00:03 | 25.28070 | 51.61363 | 28 ft | 16 kts | 337° |
| 2026-05-06 00:03 | 25.28175 | 51.61317 | 28 ft | 16 kts | 339° |
| 2026-05-06 00:03 | 25.28275 | 51.61274 | 28 ft | 15 kts | 338° |
| 2026-05-06 00:03 | 25.28369 | 51.61231 | 29 ft | 15 kts | 336° |
| 2026-05-06 00:04 | 25.28461 | 51.61190 | 28 ft | 14 kts | 339° |
| 2026-05-06 00:04 | 25.28550 | 51.61152 | 28 ft | 13 kts | 339° |
| 2026-05-06 00:04 | 25.28635 | 51.61116 | 28 ft | 13 kts | 339° |
| 2026-05-06 00:04 | 25.28716 | 51.61078 | 28 ft | 13 kts | 336° |
| 2026-05-06 00:05 | 25.28874 | 51.61014 | 28 ft | 12 kts | 6° |
| 2026-05-06 00:05 | 25.28910 | 51.61060 | 27 ft | 0 kts | 73° |
| 2026-05-06 00:05 | 25.28911 | 51.61064 | 27 ft | 1 kts | 73° |
| 2026-05-06 00:06 | 25.28912 | 51.61066 | 27 ft | 0 kts | 68° |
| 2026-05-06 00:12 | 25.28925 | 51.61097 | 28 ft | 7 kts | 66° |
| 2026-05-06 00:12 | 25.28929 | 51.61160 | 25 ft | 9 kts | 112° |
| 2026-05-06 00:13 | 25.28881 | 51.61206 | 31 ft | 9 kts | 159° |
| 2026-05-06 00:13 | 25.28871 | 51.61210 | 29 ft | 0 kts | 159° |
| 2026-05-06 00:13 | 25.28758 | 51.61262 | 28 ft | 60 kts | 157° |
| 2026-05-06 00:14 | 25.28055 | 51.61576 | 29 ft | 154 kts | 157° |
| 2026-05-06 00:14 | 25.26867 | 51.62101 | 429 ft | 204 kts | 158° |
| 2026-05-06 00:14 | 25.25524 | 51.62671 | 1583 ft | 202 kts | 157° |
| 2026-05-06 00:14 | 25.24212 | 51.63258 | 2717 ft | 209 kts | 156° |
| 2026-05-06 00:15 | 25.22790 | 51.63909 | 3069 ft | 236 kts | 155° |
| 2026-05-06 00:15 | 25.21353 | 51.64961 | 2920 ft | 277 kts | 132° |
| 2026-05-06 00:15 | 25.20008 | 51.66799 | 2611 ft | 325 kts | 128° |
| 2026-05-06 00:15 | 25.18576 | 51.68849 | 2779 ft | 349 kts | 127° |
| 2026-05-06 00:16 | 25.17061 | 51.71039 | 3206 ft | 360 kts | 127° |
| 2026-05-06 00:16 | 25.15546 | 51.73190 | 4317 ft | 348 kts | 127° |
| 2026-05-06 00:16 | 25.14105 | 51.75200 | 4793 ft | 318 kts | 127° |
| 2026-05-06 00:16 | 25.12768 | 51.77047 | 4978 ft | 299 kts | 127° |
| 2026-05-06 00:17 | 25.11498 | 51.78799 | 4985 ft | 287 kts | 127° |
| 2026-05-06 00:17 | 25.10507 | 51.80654 | 5037 ft | 279 kts | 102° |
| 2026-05-06 00:17 | 25.10253 | 51.82775 | 5513 ft | 282 kts | 92° |
| 2026-05-06 00:17 | 25.10118 | 51.84951 | 6389 ft | 286 kts | 91° |
| 2026-05-06 00:18 | 25.09988 | 51.87157 | 7278 ft | 288 kts | 91° |
| 2026-05-06 00:18 | 25.09859 | 51.89356 | 8082 ft | 293 kts | 91° |
| 2026-05-06 00:18 | 25.09724 | 51.91621 | 8891 ft | 297 kts | 91° |
| 2026-05-06 00:18 | 25.09581 | 51.93922 | 9701 ft | 301 kts | 91° |
| 2026-05-06 00:19 | 25.09434 | 51.96240 | 10442 ft | 308 kts | 91° |
| 2026-05-06 00:19 | 25.09283 | 51.98690 | 10651 ft | 332 kts | 91° |
| 2026-05-06 00:19 | 25.09116 | 52.01320 | 10855 ft | 354 kts | 92° |
| 2026-05-06 00:19 | 25.08936 | 52.04079 | 11371 ft | 363 kts | 92° |
| 2026-05-06 00:20 | 25.08750 | 52.06868 | 12091 ft | 365 kts | 92° |
| 2026-05-06 00:20 | 25.08566 | 52.09634 | 12879 ft | 366 kts | 92° |
| 2026-05-06 00:20 | 25.08380 | 52.12456 | 13577 ft | 370 kts | 93° |
| 2026-05-06 00:20 | 25.08195 | 52.15312 | 14166 ft | 375 kts | 93° |
| 2026-05-06 00:21 | 25.08005 | 52.18214 | 14750 ft | 382 kts | 93° |
| 2026-05-06 00:21 | 25.07666 | 52.21141 | 15372 ft | 386 kts | 102° |
| 2026-05-06 00:21 | 25.06993 | 52.23981 | 16019 ft | 390 kts | 105° |
| 2026-05-06 00:21 | 25.06244 | 52.26867 | 16639 ft | 393 kts | 105° |
| 2026-05-06 00:22 | 25.05488 | 52.29775 | 17284 ft | 396 kts | 105° |
| 2026-05-06 00:22 | 25.04736 | 52.32718 | 17881 ft | 399 kts | 105° |
| 2026-05-06 00:22 | 25.03990 | 52.35687 | 18436 ft | 404 kts | 105° |
| 2026-05-06 00:22 | 25.03245 | 52.38692 | 18935 ft | 409 kts | 105° |
| 2026-05-06 00:23 | 25.02493 | 52.41740 | 19476 ft | 412 kts | 105° |
| 2026-05-06 00:23 | 25.01734 | 52.44814 | 20001 ft | 416 kts | 105° |
| 2026-05-06 00:23 | 25.00979 | 52.47871 | 20468 ft | 420 kts | 105° |
| 2026-05-06 00:23 | 25.00177 | 52.50999 | 20945 ft | 424 kts | 107° |
| 2026-05-06 00:24 | 24.99262 | 52.54117 | 21397 ft | 428 kts | 109° |
| 2026-05-06 00:24 | 24.98299 | 52.57240 | 21845 ft | 432 kts | 109° |
| 2026-05-06 00:24 | 24.97331 | 52.60390 | 22283 ft | 436 kts | 109° |
| 2026-05-06 00:24 | 24.96371 | 52.63575 | 22695 ft | 440 kts | 109° |
| 2026-05-06 00:25 | 24.95413 | 52.66791 | 23081 ft | 443 kts | 109° |
| 2026-05-06 00:25 | 24.94498 | 52.70013 | 23455 ft | 447 kts | 107° |
| 2026-05-06 00:25 | 24.93658 | 52.73344 | 23823 ft | 451 kts | 105° |
| 2026-05-06 00:25 | 24.92855 | 52.76713 | 24173 ft | 454 kts | 105° |
| 2026-05-06 00:26 | 24.92061 | 52.80092 | 24532 ft | 457 kts | 105° |
| 2026-05-06 00:26 | 24.91262 | 52.83470 | 24762 ft | 461 kts | 105° |
| 2026-05-06 00:26 | 24.90444 | 52.86891 | 24748 ft | 462 kts | 105° |
| 2026-05-06 00:26 | 24.89616 | 52.90311 | 24762 ft | 461 kts | 105° |
| 2026-05-06 00:27 | 24.88786 | 52.93723 | 24767 ft | 461 kts | 105° |
| 2026-05-06 00:27 | 24.87951 | 52.97137 | 24757 ft | 461 kts | 105° |
| 2026-05-06 00:27 | 24.87114 | 53.00551 | 24762 ft | 461 kts | 105° |
| 2026-05-06 00:27 | 24.86289 | 53.03914 | 24765 ft | 461 kts | 105° |
| 2026-05-06 00:28 | 24.85449 | 53.07330 | 24758 ft | 461 kts | 105° |
| 2026-05-06 00:28 | 24.84612 | 53.10740 | 24752 ft | 461 kts | 105° |
| 2026-05-06 00:28 | 24.83775 | 53.14146 | 24752 ft | 460 kts | 105° |
| 2026-05-06 00:28 | 24.82938 | 53.17544 | 24760 ft | 460 kts | 105° |
| 2026-05-06 00:29 | 24.82100 | 53.20948 | 24753 ft | 459 kts | 105° |
| 2026-05-06 00:29 | 24.81266 | 53.24329 | 24760 ft | 459 kts | 105° |
| 2026-05-06 00:29 | 24.80428 | 53.27726 | 24764 ft | 458 kts | 105° |
| 2026-05-06 00:29 | 24.79591 | 53.31113 | 24760 ft | 460 kts | 105° |
| 2026-05-06 00:30 | 24.78897 | 53.34586 | 24761 ft | 468 kts | 98° |
| 2026-05-06 00:30 | 24.78599 | 53.38181 | 24766 ft | 474 kts | 94° |
| 2026-05-06 00:30 | 24.78403 | 53.41782 | 24761 ft | 480 kts | 93° |
| 2026-05-06 00:30 | 24.78216 | 53.45481 | 24776 ft | 484 kts | 93° |
| 2026-05-06 00:31 | 24.78012 | 53.49191 | 24770 ft | 487 kts | 94° |
| 2026-05-06 00:31 | 24.77784 | 53.52910 | 24752 ft | 486 kts | 94° |
| 2026-05-06 00:31 | 24.77540 | 53.56618 | 24752 ft | 485 kts | 94° |
| 2026-05-06 00:31 | 24.77287 | 53.60316 | 24753 ft | 485 kts | 94° |
| 2026-05-06 00:32 | 24.77033 | 53.64021 | 24766 ft | 484 kts | 94° |
| 2026-05-06 00:32 | 24.76779 | 53.67730 | 24765 ft | 484 kts | 94° |
| 2026-05-06 00:32 | 24.76529 | 53.71423 | 24762 ft | 483 kts | 94° |
| 2026-05-06 00:32 | 24.76283 | 53.75072 | 24755 ft | 483 kts | 94° |
| 2026-05-06 00:33 | 24.76034 | 53.78766 | 24760 ft | 484 kts | 94° |
| 2026-05-06 00:33 | 24.75785 | 53.82464 | 24754 ft | 483 kts | 94° |
| 2026-05-06 00:33 | 24.75534 | 53.86151 | 24752 ft | 483 kts | 94° |
| 2026-05-06 00:33 | 24.75287 | 53.89800 | 24754 ft | 483 kts | 94° |
| 2026-05-06 00:34 | 24.75034 | 53.93495 | 24761 ft | 484 kts | 94° |
| 2026-05-06 00:34 | 24.74832 | 53.97194 | 24751 ft | 484 kts | 90° |
| 2026-05-06 00:34 | 24.75057 | 54.00882 | 24758 ft | 484 kts | 81° |
| 2026-05-06 00:34 | 24.75759 | 54.04502 | 24445 ft | 484 kts | 73° |
| 2026-05-06 00:35 | 24.76763 | 54.08013 | 23830 ft | 477 kts | 71° |
| 2026-05-06 00:35 | 24.77801 | 54.11450 | 23161 ft | 470 kts | 71° |
| 2026-05-06 00:35 | 24.78821 | 54.14836 | 22474 ft | 463 kts | 71° |
| 2026-05-06 00:35 | 24.79809 | 54.18190 | 21782 ft | 457 kts | 71° |
| 2026-05-06 00:36 | 24.80756 | 54.21470 | 21096 ft | 452 kts | 72° |
| 2026-05-06 00:36 | 24.81692 | 54.24768 | 20399 ft | 446 kts | 72° |
| 2026-05-06 00:36 | 24.82609 | 54.28016 | 19709 ft | 441 kts | 72° |
| 2026-05-06 00:36 | 24.83515 | 54.31234 | 19016 ft | 435 kts | 72° |
| 2026-05-06 00:37 | 24.84407 | 54.34403 | 18333 ft | 430 kts | 72° |
| 2026-05-06 00:37 | 24.85275 | 54.37486 | 17667 ft | 425 kts | 72° |
| 2026-05-06 00:37 | 24.86146 | 54.40570 | 17157 ft | 416 kts | 72° |
| 2026-05-06 00:37 | 24.86993 | 54.43552 | 17002 ft | 399 kts | 72° |
| 2026-05-06 00:38 | 24.87807 | 54.46414 | 16827 ft | 384 kts | 72° |
| 2026-05-06 00:38 | 24.88591 | 54.49171 | 16663 ft | 371 kts | 72° |
| 2026-05-06 00:38 | 24.89351 | 54.51852 | 16507 ft | 359 kts | 72° |
| 2026-05-06 00:38 | 24.90082 | 54.54429 | 16371 ft | 347 kts | 72° |
| 2026-05-06 00:39 | 24.90785 | 54.56908 | 16217 ft | 337 kts | 72° |
| 2026-05-06 00:39 | 24.91474 | 54.59342 | 16075 ft | 327 kts | 72° |
| 2026-05-06 00:39 | 24.92141 | 54.61700 | 15939 ft | 318 kts | 72° |
| 2026-05-06 00:39 | 24.92834 | 54.63983 | 15795 ft | 309 kts | 64° |
| 2026-05-06 00:40 | 24.94063 | 54.65848 | 15630 ft | 301 kts | 41° |
| 2026-05-06 00:40 | 24.95700 | 54.67233 | 15456 ft | 294 kts | 35° |
| 2026-05-06 00:40 | 24.97370 | 54.68516 | 15263 ft | 291 kts | 34° |
| 2026-05-06 00:40 | 24.99033 | 54.69784 | 15073 ft | 290 kts | 34° |
| 2026-05-06 00:41 | 25.00695 | 54.71058 | 14881 ft | 290 kts | 35° |
| 2026-05-06 00:41 | 25.02348 | 54.72335 | 14691 ft | 290 kts | 35° |
| 2026-05-06 00:41 | 25.03445 | 54.73189 | 14567 ft | 290 kts | 36° |
| 2026-05-06 00:41 | 25.05635 | 54.74899 | 14308 ft | 290 kts | 36° |
| 2026-05-06 00:42 | 25.06748 | 54.75768 | 14191 ft | 290 kts | 36° |
| 2026-05-06 00:42 | 25.08373 | 54.77040 | 14141 ft | 285 kts | 36° |
| 2026-05-06 00:42 | 25.09985 | 54.78302 | 13971 ft | 284 kts | 36° |
| 2026-05-06 00:42 | 25.11602 | 54.79569 | 13792 ft | 285 kts | 36° |
| 2026-05-06 00:43 | 25.13220 | 54.80839 | 13615 ft | 285 kts | 36° |
| 2026-05-06 00:43 | 25.14839 | 54.82110 | 13426 ft | 286 kts | 36° |
| 2026-05-06 00:43 | 25.16414 | 54.83416 | 13240 ft | 286 kts | 39° |
| 2026-05-06 00:43 | 25.17941 | 54.84832 | 13048 ft | 287 kts | 41° |
| 2026-05-06 00:44 | 25.19462 | 54.86275 | 12855 ft | 288 kts | 41° |
| 2026-05-06 00:44 | 25.20988 | 54.87718 | 12660 ft | 288 kts | 41° |
| 2026-05-06 00:44 | 25.22516 | 54.89155 | 12470 ft | 289 kts | 41° |
| 2026-05-06 00:44 | 25.24044 | 54.90585 | 12269 ft | 286 kts | 41° |
| 2026-05-06 00:45 | 25.25553 | 54.91993 | 12072 ft | 282 kts | 41° |
| 2026-05-06 00:45 | 25.27042 | 54.93382 | 11879 ft | 278 kts | 41° |
| 2026-05-06 00:45 | 25.28475 | 54.94794 | 11683 ft | 275 kts | 50° |
| 2026-05-06 00:45 | 25.29419 | 54.96584 | 11521 ft | 272 kts | 65° |
| 2026-05-06 00:46 | 25.30210 | 54.98483 | 11333 ft | 272 kts | 66° |
| 2026-05-06 00:46 | 25.31004 | 55.00385 | 11154 ft | 273 kts | 65° |
| 2026-05-06 00:46 | 25.31808 | 55.02294 | 10971 ft | 275 kts | 65° |
| 2026-05-06 00:46 | 25.32619 | 55.04200 | 10792 ft | 277 kts | 65° |
| 2026-05-06 00:47 | 25.33443 | 55.06132 | 10600 ft | 279 kts | 65° |
| 2026-05-06 00:47 | 25.34274 | 55.08078 | 10413 ft | 281 kts | 65° |
| 2026-05-06 00:47 | 25.35087 | 55.10045 | 10219 ft | 282 kts | 71° |
| 2026-05-06 00:47 | 25.35296 | 55.12184 | 10015 ft | 281 kts | 101° |
| 2026-05-06 00:48 | 25.34593 | 55.14142 | 9842 ft | 278 kts | 124° |
| 2026-05-06 00:48 | 25.33378 | 55.15788 | 9672 ft | 274 kts | 132° |
| 2026-05-06 00:48 | 25.32092 | 55.17337 | 9481 ft | 273 kts | 133° |
| 2026-05-06 00:48 | 25.30801 | 55.18873 | 9293 ft | 272 kts | 133° |
| 2026-05-06 00:49 | 25.29521 | 55.20412 | 9109 ft | 271 kts | 133° |
| 2026-05-06 00:49 | 25.28270 | 55.21932 | 8927 ft | 269 kts | 133° |
| 2026-05-06 00:49 | 25.27027 | 55.23451 | 8749 ft | 264 kts | 133° |
| 2026-05-06 00:49 | 25.25808 | 55.24946 | 8555 ft | 259 kts | 133° |
| 2026-05-06 00:50 | 25.24615 | 55.26410 | 8391 ft | 253 kts | 133° |
| 2026-05-06 00:50 | 25.23448 | 55.27844 | 8222 ft | 248 kts | 133° |
| 2026-05-06 00:50 | 25.22303 | 55.29246 | 8049 ft | 243 kts | 133° |
| 2026-05-06 00:50 | 25.21175 | 55.30626 | 7896 ft | 241 kts | 133° |
| 2026-05-06 00:51 | 25.20065 | 55.31986 | 7747 ft | 242 kts | 133° |
| 2026-05-06 00:51 | 25.18934 | 55.33371 | 7593 ft | 244 kts | 132° |
| 2026-05-06 00:51 | 25.17950 | 55.34896 | 7417 ft | 244 kts | 122° |
| 2026-05-06 00:51 | 25.17078 | 55.36499 | 7261 ft | 242 kts | 122° |
| 2026-05-06 00:52 | 25.16194 | 55.38091 | 7099 ft | 242 kts | 123° |
| 2026-05-06 00:52 | 25.15322 | 55.39653 | 6964 ft | 241 kts | 122° |
| 2026-05-06 00:52 | 25.14443 | 55.41220 | 6856 ft | 237 kts | 123° |
| 2026-05-06 00:52 | 25.13579 | 55.42752 | 6752 ft | 234 kts | 123° |
| 2026-05-06 00:53 | 25.12714 | 55.44283 | 6664 ft | 236 kts | 123° |
| 2026-05-06 00:53 | 25.11837 | 55.45833 | 6565 ft | 238 kts | 123° |
| 2026-05-06 00:53 | 25.10968 | 55.47373 | 6460 ft | 240 kts | 123° |
| 2026-05-06 00:53 | 25.10093 | 55.48940 | 6361 ft | 239 kts | 123° |
| 2026-05-06 00:54 | 25.09224 | 55.50499 | 6261 ft | 239 kts | 123° |
| 2026-05-06 00:54 | 25.08353 | 55.52061 | 6165 ft | 239 kts | 123° |
| 2026-05-06 00:54 | 25.07583 | 55.53674 | 6033 ft | 237 kts | 104° |
| 2026-05-06 00:54 | 25.07682 | 55.55467 | 5779 ft | 238 kts | 73° |
| 2026-05-06 00:55 | 25.08238 | 55.57168 | 5633 ft | 233 kts | 67° |
| 2026-05-06 00:55 | 25.09223 | 55.58525 | 5408 ft | 232 kts | 33° |
| 2026-05-06 00:55 | 25.10752 | 55.59126 | 4859 ft | 245 kts | 2° |
| 2026-05-06 00:55 | 25.12443 | 55.58620 | 4155 ft | 264 kts | 325° |
| 2026-05-06 00:56 | 25.13703 | 55.57138 | 3779 ft | 266 kts | 307° |
| 2026-05-06 00:56 | 25.14772 | 55.55454 | 3387 ft | 268 kts | 301° |
| 2026-05-06 00:56 | 25.15738 | 55.53682 | 3012 ft | 267 kts | 300° |
| 2026-05-06 00:56 | 25.16661 | 55.51992 | 2680 ft | 246 kts | 301° |
| 2026-05-06 00:57 | 25.17510 | 55.50460 | 2352 ft | 226 kts | 302° |
| 2026-05-06 00:57 | 25.18297 | 55.49039 | 2064 ft | 207 kts | 302° |
| 2026-05-06 00:57 | 25.19023 | 55.47729 | 1792 ft | 192 kts | 302° |
| 2026-05-06 00:57 | 25.19694 | 55.46520 | 1562 ft | 177 kts | 302° |
| 2026-05-06 00:58 | 25.20307 | 55.45414 | 1381 ft | 158 kts | 303° |
| 2026-05-06 00:58 | 25.20859 | 55.44417 | 1142 ft | 149 kts | 303° |
| 2026-05-06 00:58 | 25.21390 | 55.43458 | 944 ft | 144 kts | 302° |
| 2026-05-06 00:58 | 25.21907 | 55.42527 | 766 ft | 145 kts | 302° |
| 2026-05-06 00:59 | 25.22435 | 55.41573 | 571 ft | 145 kts | 302° |
| 2026-05-06 00:59 | 25.22958 | 55.40630 | 376 ft | 143 kts | 301° |
| 2026-05-06 00:59 | 25.23478 | 55.39691 | 192 ft | 144 kts | 302° |
| 2026-05-06 00:59 | 25.23997 | 55.38753 | 42 ft | 141 kts | 302° |
| 2026-05-06 01:00 | 25.24467 | 55.37905 | 26 ft | 119 kts | 301° |
| 2026-05-06 01:00 | 25.24734 | 55.37414 | 21 ft | 30 kts | 293° |
| 2026-05-06 01:00 | 25.24781 | 55.37185 | 23 ft | 30 kts | 274° |
| 2026-05-06 01:00 | 25.24792 | 55.36987 | 21 ft | 21 kts | 282° |
| 2026-05-06 01:01 | 25.24845 | 55.36849 | 21 ft | 17 kts | 295° |
| 2026-05-06 01:01 | 25.24874 | 55.36725 | 21 ft | 16 kts | 283° |
| 2026-05-06 01:01 | 25.24919 | 55.36615 | 21 ft | 13 kts | 297° |
| 2026-05-06 01:01 | 25.24897 | 55.36580 | 21 ft | 6 kts | 197° |
| 2026-05-06 01:02 | 25.24857 | 55.36560 | 20 ft | 6 kts | 210° |
| 2026-05-06 01:02 | 25.24819 | 55.36534 | 20 ft | 6 kts | 211° |
| 2026-05-06 01:02 | 25.24782 | 55.36510 | 20 ft | 6 kts | 211° |
| 2026-05-06 01:02 | 25.24760 | 55.36495 | 20 ft | 0 kts | 212° |
| 2026-05-06 01:04 | 25.24758 | 55.36494 | 20 ft | 0 kts | 212° |
| 2026-05-06 01:04 | 25.24761 | 55.36496 | 20 ft | 0 kts | 212° |
| 2026-05-06 01:04 | 25.24768 | 55.36500 | 21 ft | 2 kts | 213° |
| 2026-05-06 01:04 | 25.24766 | 55.36499 | 20 ft | 0 kts | 213° |